Flight Track Log - Related Links

Times and Time Zones

All times are in EDT time to prevent confusion due to time zone crossing. See the N2876Q flight status page for this flight to view local times or setup timezone preferences in your user account.

Time Position Orientation Groundspeed Altitude Reporting Facility
EDT Latitude Longitude Course Direction KTS MPH feet Rate Location/Type
Mon 10:52:56 AM 35.3333 -89.4833 333° Northwest 81 93 2,800  Level KMEM
Mon 10:53:56 AM 35.3500 -89.5000 321° Northwest 71 82 3,400 650 Climbing KMEM
Mon 10:54:56 AM 35.3667 -89.5167 321° Northwest 71 82 4,100 550 Climbing KMEM
Mon 10:55:56 AM 35.3667 -89.5333 270° West 66 76 4,500 263 Climbing KMEM
Mon 10:56:50 AM 35.3833 -89.5500 321° Northwest 92 106 4,600  Climbing KMEM
Mon 10:57:50 AM 35.4167 -89.5667 338° Northwest 99 114 4,500 -100 Descending KMEM
Mon 10:58:00 AM 34.9762 -90.1497 333° Northwest  Level FlightAware
Mon 10:58:50 AM 35.4333 -89.5833 321° Northwest 91 105 4,400  Level KMEM
Mon 10:59:50 AM 35.4500 -89.6167 302° West 86 99 4,500  Climbing KMEM
Mon 11:00:50 AM 35.4667 -89.6333 321° Northwest 90 104 4,400 -50 Descending KMEM
Mon 11:01:50 AM 35.4833 -89.6500 321° Northwest 91 105 4,400  Level KMEM
Mon 11:02:50 AM 35.5000 -89.6667 321° Northwest 88 101 4,400  Level KMEM
Mon 11:03:56 AM 35.5167 -89.7000 302° West 93 107 4,400  Level KMEM
Mon 11:04:56 AM 35.5333 -89.7333 302° West 88 101 4,400 50 Level KMEM
Mon 11:05:56 AM 35.5500 -89.7500 321° Northwest 88 101 4,500 54 Climbing KMEM
Mon 11:06:47 AM 35.5578 -89.7700 296° West 90 104 4,500 -53 Level Memphis Center
Mon 11:07:49 AM 35.5722 -89.7953 305° West 90 104 4,400 -48 Descending Memphis Center
Mon 11:08:51 AM 35.5858 -89.8208 303° West 90 104 4,400  Level Memphis Center
Mon 11:09:53 AM 35.5992 -89.8450 304° West 86 99 4,400  Level Memphis Center
Mon 11:10:55 AM 35.6114 -89.8728 298° West 89 102 4,400  Level Memphis Center
Mon 11:11:57 AM 35.6261 -89.9033 301° West 89 102 4,400  Level Memphis Center
Mon 11:12:59 AM 35.6414 -89.9278 308° West 89 102 4,400  Level Memphis Center
Mon 11:14:01 AM 35.6567 -89.9508 309° West 88 101 4,400  Level Memphis Center
Mon 11:15:03 AM 35.6731 -89.9742 311° West 88 101 4,400  Level Memphis Center
Mon 11:16:05 AM 35.6908 -89.9953 316° Northwest 89 102 4,400  Level Memphis Center
Mon 11:17:07 AM 35.7092 -90.0233 309° West 90 104 4,400  Level Memphis Center
Mon 11:18:09 AM 35.7225 -90.0494 302° West 91 105 4,400 48 Level Memphis Center
Mon 11:19:11 AM 35.7367 -90.0742 305° West 89 102 4,500 48 Climbing Memphis Center
Mon 11:20:14 AM 35.7522 -90.0997 307° West 91 105 4,500  Level Memphis Center
Mon 11:21:16 AM 35.7650 -90.1256 301° West 90 104 4,500  Level Memphis Center
Mon 11:22:18 AM 35.7781 -90.1508 302° West 88 101 4,500  Level Memphis Center
Mon 11:23:20 AM 35.7922 -90.1772 304° West 91 105 4,500 -48 Level Memphis Center
Mon 11:24:22 AM 35.8086 -90.2081 303° West 90 104 4,400  Descending Memphis Center
Mon 11:25:24 AM 35.8250 -90.2322 310° West 91 105 4,500  Climbing Memphis Center
Mon 11:26:26 AM 35.8411 -90.2581 308° West 93 107 4,400 -48 Descending Memphis Center
Mon 11:27:28 AM 35.8578 -90.2822 310° West 94 108 4,400  Level Memphis Center
Mon 11:28:30 AM 35.8714 -90.3078 303° West 91 105 4,400  Level Memphis Center
Mon 11:29:32 AM 35.8842 -90.3336 301° West 89 102 4,400  Level Memphis Center
Mon 11:30:34 AM 35.8992 -90.3656 300° West 89 102 4,400  Level Memphis Center
Mon 11:31:36 AM 35.9125 -90.3908 303° West 89 102 4,400  Level Memphis Center
Mon 11:32:38 AM 35.9256 -90.4186 300° West 91 105 4,400  Level Memphis Center
Mon 11:33:40 AM 35.9381 -90.4447 301° West 90 104 4,400  Level Memphis Center
Mon 11:34:42 AM 35.9542 -90.4678 311° West 89 102 4,400  Level Memphis Center
Mon 11:35:44 AM 35.9725 -90.4906 315° West 91 105 4,400 48 Level Memphis Center
Mon 11:36:46 AM 35.9850 -90.5167 301° West 89 102 4,500 39 Climbing Memphis Center
Mon 11:38:17 AM 36.0092 -90.5572 306° West 92 106 4,500  Level Memphis Center
Mon 11:39:19 AM 36.0222 -90.5819 303° West 90 104 4,500  Level Memphis Center
Mon 11:40:21 AM 36.0383 -90.6069 309° West 90 104 4,500  Level Memphis Center
Mon 11:41:23 AM 36.0553 -90.6300 312° West 91 105 4,500 -48 Level Memphis Center
Mon 11:42:25 AM 36.0744 -90.6594 309° West 91 105 4,400 -48 Descending Memphis Center
Mon 11:43:27 AM 36.0931 -90.6817 316° Northwest 92 106 4,400  Level Memphis Center
Mon 11:44:29 AM 36.1106 -90.7047 313° West 92 106 4,400  Level Memphis Center
Mon 11:45:31 AM 36.1267 -90.7275 311° West 91 105 4,400  Level Memphis Center
Mon 11:46:34 AM 36.1414 -90.7522 306° West 90 104 4,400  Level Memphis Center
Mon 11:47:36 AM 36.1581 -90.7775 309° West 92 106 4,400  Level Memphis Center

Login

Don't have an account? Register now (free) for customized features, flight alerts, and more!